Time;durP1;ratioP1;P1;durP2;ratioP2;P2;SDS_P1;SDS_P2;PMS_P1;PMS_P2;Temp;Humidity;BMP_temperature;BMP_pressure;BME280_temperature;BME280_humidity;BME280_pressure;Samples;Min_cycle;Max_cycle;Signal;HPM_P1;HPM_P2
2023/01/16 00:00:21;;;;;;;14.50;2.20;;;;;;;9.57;75.98;99158.09;4980086;28;20054;-74
2023/01/16 00:02:48;;;;;;;11.90;1.85;;;;;;;9.59;75.62;99152.28;4997789;28;20065;-75
2023/01/16 00:05:15;;;;;;;10.80;2.10;;;;;;;9.13;78.67;99136.25;4997262;28;20054;-74
2023/01/16 00:07:43;;;;;;;7.55;1.77;;;;;;;9.59;77.59;99116.56;5014161;28;20054;-75
2023/01/16 00:10:11;;;;;;;12.98;2.13;;;;;;;9.59;76.88;99095.34;4998213;28;20053;-76
2023/01/16 00:12:39;;;;;;;12.40;2.25;;;;;;;9.58;75.86;99081.94;4988004;28;20422;-74
2023/01/16 00:15:06;;;;;;;13.43;2.28;;;;;;;9.76;77.28;99064.81;4981800;28;20066;-76
2023/01/16 00:17:34;;;;;;;16.30;3.03;;;;;;;9.51;74.54;99060.56;4999411;28;20058;-75
2023/01/16 00:20:01;;;;;;;12.45;2.45;;;;;;;9.65;77.43;99036.25;5000003;28;20057;-74
2023/01/16 00:22:28;;;;;;;15.38;2.80;;;;;;;9.49;74.20;99015.31;5013884;28;20134;-75
2023/01/16 00:24:56;;;;;;;11.82;2.35;;;;;;;9.17;75.76;99002.56;5013055;28;20425;-73
2023/01/16 00:27:23;;;;;;;12.57;2.60;;;;;;;9.12;75.58;98983.59;5002046;28;20063;-74
2023/01/16 00:29:50;;;;;;;11.25;2.05;;;;;;;9.58;78.67;98972.81;4979857;28;20510;-74
2023/01/16 00:32:18;;;;;;;9.48;2.25;;;;;;;9.19;75.04;98956.34;5010398;28;20066;-74
2023/01/16 00:34:45;;;;;;;13.07;2.30;;;;;;;9.00;76.91;98934.97;4981941;28;20054;-75
2023/01/16 00:37:13;;;;;;;9.80;1.90;;;;;;;9.04;78.82;98917.47;4997339;28;20050;-74
2023/01/16 00:39:40;;;;;;;15.00;2.20;;;;;;;9.06;76.30;98906.94;4997815;28;20065;-74
2023/01/16 00:42:07;;;;;;;9.32;1.60;;;;;;;8.87;77.16;98895.72;4987682;28;20050;-75
2023/01/16 00:44:35;;;;;;;11.20;2.10;;;;;;;8.93;78.33;98877.06;4978997;28;20062;-73
2023/01/16 00:47:02;;;;;;;19.92;2.28;;;;;;;9.00;76.17;98861.63;5010580;28;20057;-74
2023/01/16 00:49:30;;;;;;;9.63;1.95;;;;;;;9.08;77.40;98844.19;4999206;28;20050;-75
2023/01/16 00:51:57;;;;;;;8.70;1.80;;;;;;;8.88;80.43;98830.66;4976106;28;20054;-73
2023/01/16 00:54:25;;;;;;;12.75;2.38;;;;;;;9.13;77.88;98817.63;4998479;28;20053;-74
2023/01/16 00:56:53;;;;;;;14.25;2.63;;;;;;;9.20;78.80;98799.41;4999578;28;20061;-75
2023/01/16 00:59:20;;;;;;;14.25;2.45;;;;;;;9.03;77.97;98797.75;4988188;28;20054;-77
2023/01/16 01:01:47;;;;;;;9.85;1.77;;;;;;;9.27;77.53;98779.56;4993416;28;20074;-74
2023/01/16 01:04:16;;;;;;;14.95;2.33;;;;;;;8.89;76.69;98755.38;5003634;28;20062;-75
2023/01/16 01:06:44;;;;;;;14.50;1.73;;;;;;;9.02;79.65;98733.00;4996152;28;20066;-73
2023/01/16 01:09:12;;;;;;;13.40;1.80;;;;;;;8.85;76.64;98727.03;4996702;28;20619;-73
2023/01/16 01:11:39;;;;;;;11.18;2.00;;;;;;;8.89;77.17;98708.72;4993598;28;20556;-74
2023/01/16 01:14:06;;;;;;;14.23;1.98;;;;;;;8.80;77.72;98695.13;4990523;28;20432;-74
2023/01/16 01:16:33;;;;;;;10.43;2.38;;;;;;;8.99;77.40;98678.00;5007648;28;20054;-76
2023/01/16 01:19:01;;;;;;;11.77;2.00;;;;;;;8.86;77.56;98662.72;5016523;28;20046;-75
2023/01/16 01:21:28;;;;;;;16.02;2.08;;;;;;;9.11;80.74;98653.22;4999758;28;20046;-75
2023/01/16 01:23:56;;;;;;;11.68;1.88;;;;;;;9.18;77.67;98636.09;4995279;28;20046;-73
2023/01/16 01:26:23;;;;;;;10.07;1.75;;;;;;;8.86;76.35;98618.81;4971396;28;20058;-72
2023/01/16 01:28:51;;;;;;;9.38;1.50;;;;;;;8.75;76.50;98588.34;5014547;28;20061;-75
2023/01/16 01:31:18;;;;;;;12.88;2.08;;;;;;;8.52;76.65;98587.34;4987274;28;20082;-75
2023/01/16 01:33:45;;;;;;;8.48;1.48;;;;;;;8.70;80.54;98574.09;4959856;28;20066;-75
2023/01/16 01:36:13;;;;;;;11.93;2.03;;;;;;;8.73;78.26;98548.69;4975814;28;20046;-75
2023/01/16 01:38:40;;;;;;;9.88;1.83;;;;;;;8.31;78.06;98542.91;4981620;28;20638;-74
2023/01/16 01:41:11;;;;;;;9.90;1.42;;;;;;;8.15;80.10;98506.38;4997040;28;20066;-73
2023/01/16 01:43:50;;;;;;;13.13;2.38;;;;;;;8.16;80.55;98518.16;4996818;28;20058;-75
2023/01/16 01:46:17;;;;;;;11.77;1.80;;;;;;;8.29;80.82;98498.56;5004319;28;20058;-74
2023/01/16 01:48:45;;;;;;;9.80;1.45;;;;;;;8.33;81.73;98474.78;4993872;28;20497;-75
2023/01/16 01:51:26;;;;;;;9.23;1.35;;;;;;;8.18;81.21;98452.75;4969780;28;20050;-74
2023/01/16 01:54:10;;;;;;;9.35;1.67;;;;;;;8.49;82.73;98437.16;4996806;28;20061;-73
2023/01/16 01:56:50;;;;;;;10.23;1.50;;;;;;;8.17;81.78;98441.03;4980171;28;20510;-75
2023/01/16 01:59:21;;;;;;;10.50;1.92;;;;;;;8.42;82.96;98417.78;4998269;28;20058;-74
2023/01/16 02:01:48;;;;;;;9.93;1.60;;;;;;;8.57;81.81;98403.25;4978194;28;20513;-74
2023/01/16 02:04:19;;;;;;;14.52;2.67;;;;;;;8.30;82.75;98393.19;4996050;28;20057;-74
2023/01/16 02:06:54;;;;;;;9.43;1.58;;;;;;;8.19;82.78;98380.34;5002639;28;20047;-73
2023/01/16 02:09:22;;;;;;;8.80;1.90;;;;;;;8.73;85.90;98373.03;4977002;28;20054;-73
2023/01/16 02:11:54;;;;;;;7.95;1.60;;;;;;;8.17;85.58;98352.47;4990398;28;20050;-75
2023/01/16 02:14:22;;;;;;;13.25;2.08;;;;;;;8.29;87.43;98344.19;4995556;28;20529;-75
2023/01/16 02:20:08;;;;;;;11.23;1.80;;;;;;;8.48;85.20;98309.38;4982401;28;20050;-75
2023/01/16 02:22:46;;;;;;;10.93;2.42;;;;;;;8.72;85.69;98311.06;4989351;28;20530;-74
2023/01/16 02:25:16;;;;;;;10.85;1.67;;;;;;;8.30;84.36;98282.72;4993181;28;20578;-74
2023/01/16 02:27:56;;;;;;;9.68;1.63;;;;;;;8.38;85.55;98246.84;4985520;28;20059;-76
2023/01/16 02:30:49;;;;;;;12.25;2.00;;;;;;;8.14;86.61;98258.03;4977299;28;20082;-74
2023/01/16 02:33:34;;;;;;;6.32;1.23;;;;;;;8.20;88.54;98251.09;4969328;28;20059;-75
2023/01/16 02:36:31;;;;;;;14.77;2.38;;;;;;;8.29;86.66;98229.78;4997891;28;20525;-74
2023/01/16 02:39:22;;;;;;;6.43;1.20;;;;;;;8.41;87.22;98217.88;4977441;28;20500;-69
2023/01/16 02:42:09;;;;;;;11.00;1.67;;;;;;;8.35;87.13;98206.41;4990507;28;20054;-68
2023/01/16 02:44:36;;;;;;;9.38;1.40;;;;;;;8.43;86.57;98196.38;4994310;28;20057;-69
2023/01/16 02:47:22;;;;;;;11.40;1.75;;;;;;;8.40;88.30;98177.91;4990562;28;20058;-68
2023/01/16 02:50:14;;;;;;;7.72;1.73;;;;;;;8.56;87.11;98168.44;4966153;28;20062;-69
2023/01/16 02:52:53;;;;;;;8.38;1.90;;;;;;;8.24;86.01;98150.56;4996437;28;20065;-68
2023/01/16 02:55:24;;;;;;;7.32;1.17;;;;;;;8.26;86.50;98140.03;4996063;28;20058;-67
2023/01/16 02:57:59;;;;;;;6.88;1.30;;;;;;;8.21;87.31;98128.53;4962305;28;20054;-68
2023/01/16 03:00:28;;;;;;;9.45;1.48;;;;;;;8.33;87.74;98123.72;4983560;28;20054;-67
2023/01/16 03:02:55;;;;;;;5.95;1.02;;;;;;;8.69;88.33;98108.72;4959743;28;20054;-67
2023/01/16 03:05:23;;;;;;;8.15;1.55;;;;;;;8.59;86.53;98090.91;4977982;28;20054;-67
2023/01/16 03:08:43;;;;;;;7.43;1.70;;;;;;;8.32;86.27;98102.91;4996574;28;20058;-68
2023/01/16 03:11:22;;;;;;;;;;;;;;;8.56;86.81;98086.13;4974064;28;20059;-69
2023/01/16 03:14:27;;;;;;;8.85;1.08;;;;;;;8.31;87.19;98093.13;4963850;28;19928;-69
2023/01/16 03:17:08;;;;;;;6.60;1.35;;;;;;;8.39;88.41;98072.09;4991895;28;20502;-68
2023/01/16 03:19:45;;;;;;;7.53;1.30;;;;;;;8.67;86.53;98069.88;4978881;28;20054;-67
2023/01/16 03:22:17;;;;;;;4.32;0.65;;;;;;;8.55;86.16;98051.63;5010598;28;20069;-68
2023/01/16 03:24:57;;;;;;;3.42;0.60;;;;;;;8.76;86.13;98043.78;4993366;28;20062;-68
2023/01/16 03:27:41;;;;;;;3.13;0.88;;;;;;;9.13;86.56;98044.78;4959784;28;20451;-69
2023/01/16 03:30:15;;;;;;;6.85;1.60;;;;;;;9.21;84.28;98031.94;4956474;28;20051;-71
2023/01/16 03:32:46;;;;;;;7.47;1.30;;;;;;;8.74;83.74;98037.06;4995574;28;20061;-69
2023/01/16 03:35:19;;;;;;;2.72;0.80;;;;;;;8.82;85.70;98036.03;4994129;28;20065;-68
2023/01/16 03:37:50;;;;;;;2.20;0.55;;;;;;;9.80;88.10;98037.50;4943852;28;20057;-69
2023/01/16 03:40:22;;;;;;;2.28;0.50;;;;;;;9.88;82.22;98010.91;4960008;28;20510;-70
2023/01/16 03:42:58;;;;;;;3.45;0.70;;;;;;;9.51;81.83;98018.25;4940052;29;20070;-69
2023/01/16 03:45:51;;;;;;;3.38;0.65;;;;;;;9.71;82.30;97987.50;4943670;28;20070;-68
2023/01/16 03:48:38;;;;;;;2.25;0.50;;;;;;;9.86;81.82;97988.47;4974913;28;20051;-68
2023/01/16 03:51:07;;;;;;;2.70;0.50;;;;;;;9.53;81.25;97960.97;4982109;28;20043;-68
2023/01/16 03:53:43;;;;;;;4.50;1.05;;;;;;;9.89;83.25;97972.03;4967190;28;20047;-68
2023/01/16 03:56:16;;;;;;;2.05;0.40;;;;;;;9.62;80.52;97965.03;4963360;28;20042;-68
2023/01/16 03:58:50;;;;;;;2.20;0.40;;;;;;;9.33;82.23;97959.56;4962202;28;20054;-69
2023/01/16 04:01:36;;;;;;;2.42;0.50;;;;;;;9.58;80.85;97944.16;4971067;28;20038;-69
2023/01/16 04:04:22;;;;;;;2.10;0.30;;;;;;;9.72;80.26;97936.88;4966581;28;20043;-68
2023/01/16 04:07:24;;;;;;;1.63;0.38;;;;;;;9.41;81.69;97936.50;5003085;28;20469;-68
2023/01/16 04:09:57;;;;;;;1.65;0.30;;;;;;;9.51;80.00;97924.84;5001610;28;20062;-68
2023/01/16 04:12:32;;;;;;;3.30;0.40;;;;;;;9.46;79.53;97922.41;4981480;28;20046;-68
2023/01/16 04:15:04;;;;;;;1.38;0.40;;;;;;;9.44;78.36;97906.31;4997616;28;20077;-68
2023/01/16 04:17:38;;;;;;;1.15;0.30;;;;;;;8.99;78.28;97901.00;5007065;28;20062;-68
2023/01/16 04:20:07;;;;;;;1.77;0.40;;;;;;;9.32;81.48;97892.03;4979634;28;20051;-67
2023/01/16 04:22:35;;;;;;;2.30;0.32;;;;;;;9.19;79.58;97890.69;5013597;28;20042;-68
2023/01/16 04:25:06;;;;;;;0.90;0.30;;;;;;;9.24;79.49;97879.38;4998186;28;20050;-68
2023/01/16 04:27:34;;;;;;;2.30;0.55;;;;;;;9.33;80.97;97866.94;4984465;28;20059;-68
2023/01/16 04:30:07;;;;;;;4.10;0.50;;;;;;;9.72;79.54;97859.13;4977776;28;20054;-68
2023/01/16 04:32:35;;;;;;;1.52;0.30;;;;;;;9.79;80.40;97861.94;4977997;28;20073;-68
2023/01/16 04:35:03;;;;;;;3.33;0.40;;;;;;;9.77;76.42;97853.28;4998666;28;20065;-70
2023/01/16 04:37:30;;;;;;;3.70;0.70;;;;;;;9.48;76.79;97841.22;4998732;28;20058;-69
2023/01/16 04:39:58;;;;;;;3.65;0.57;;;;;;;9.30;76.55;97825.69;4999194;28;20074;-68
2023/01/16 04:42:26;;;;;;;3.33;0.70;;;;;;;9.69;78.77;97818.66;4984185;28;20043;-69
2023/01/16 04:44:53;;;;;;;3.35;0.47;;;;;;;9.56;77.73;97820.88;4994494;28;20058;-69
2023/01/16 04:47:21;;;;;;;3.60;0.57;;;;;;;9.84;77.58;97823.91;4996472;28;20041;-68
2023/01/16 04:49:48;;;;;;;3.33;0.93;;;;;;;9.93;77.82;97798.84;4998051;28;20043;-67
2023/01/16 04:52:15;;;;;;;1.40;0.38;;;;;;;10.03;79.66;97789.91;4997042;28;20046;-68
2023/01/16 04:54:42;;;;;;;5.22;0.90;;;;;;;10.46;78.86;97774.53;4998515;28;20050;-68
2023/01/16 04:57:10;;;;;;;5.32;0.75;;;;;;;10.34;75.98;97758.34;4982041;28;20055;-69
2023/01/16 04:59:37;;;;;;;4.60;0.73;;;;;;;9.94;78.25;97746.22;4960132;28;20063;-68
2023/01/16 05:02:04;;;;;;;2.60;0.55;;;;;;;9.54;77.17;97732.53;4989840;28;20050;-68
2023/01/16 05:04:32;;;;;;;4.18;0.90;;;;;;;9.30;77.29;97724.06;5012896;28;20165;-68
2023/01/16 05:06:59;;;;;;;1.85;0.38;;;;;;;9.97;80.74;97733.69;4978951;28;20078;-69
2023/01/16 05:09:26;;;;;;;2.25;0.52;;;;;;;9.64;77.87;97722.81;4979396;28;20510;-68
2023/01/16 05:11:53;;;;;;;4.97;0.63;;;;;;;9.56;79.86;97701.94;4989018;28;20054;-69
2023/01/16 05:14:21;;;;;;;3.42;0.60;;;;;;;9.15;80.26;97697.63;4977239;28;20066;-69
2023/01/16 05:16:48;;;;;;;3.75;0.93;;;;;;;9.51;81.15;97683.06;4973327;28;20058;-66
2023/01/16 05:19:16;;;;;;;6.85;1.00;;;;;;;9.51;82.57;97670.13;4980808;28;20050;-70
2023/01/16 05:21:43;;;;;;;6.63;1.10;;;;;;;9.38;80.43;97657.81;4997648;28;20055;-70
2023/01/16 05:24:10;;;;;;;9.93;1.70;;;;;;;9.61;82.94;97663.13;4997620;28;20061;-68
2023/01/16 05:26:38;;;;;;;8.30;1.65;;;;;;;9.79;80.00;97640.09;4954684;28;20058;-70
2023/01/16 05:29:05;;;;;;;5.93;1.80;;;;;;;9.97;81.54;97635.47;4975976;28;20062;-67
2023/01/16 05:31:33;;;;;;;6.22;1.13;;;;;;;9.80;82.03;97635.38;5003933;28;20042;-70
2023/01/16 05:34:00;;;;;;;4.63;1.10;;;;;;;10.00;79.32;97622.94;4997428;28;20077;-69
2023/01/16 05:36:27;;;;;;;7.07;0.95;;;;;;;10.17;80.37;97622.28;5011928;28;20049;-68
2023/01/16 05:38:55;;;;;;;3.47;0.90;;;;;;;10.09;77.72;97612.41;5012293;28;20061;-68
2023/01/16 05:41:23;;;;;;;6.35;1.02;;;;;;;10.08;79.36;97591.53;4995786;28;20050;-69
2023/01/16 05:43:50;;;;;;;7.40;1.10;;;;;;;10.27;81.16;97598.75;4984569;28;20047;-68
2023/01/16 05:46:17;;;;;;;4.78;1.00;;;;;;;10.50;79.44;97589.00;4969266;28;20047;-69
2023/01/16 05:48:45;;;;;;;6.47;1.55;;;;;;;10.26;78.04;97580.66;4997217;28;20054;-68
2023/01/16 05:51:12;;;;;;;6.90;1.15;;;;;;;10.39;77.11;97584.66;4979466;28;20058;-68
2023/01/16 05:53:39;;;;;;;7.38;1.33;;;;;;;10.75;76.95;97570.59;4996313;28;20805;-68
2023/01/16 05:56:11;;;;;;;5.05;1.50;;;;;;;10.86;75.60;97565.88;4978993;28;20664;-69
2023/01/16 05:58:38;;;;;;;9.13;1.38;;;;;;;10.72;75.91;97568.59;4984717;28;20062;-69
2023/01/16 06:01:05;;;;;;;9.20;2.00;;;;;;;10.72;74.62;97560.34;4976885;28;20050;-69
2023/01/16 06:03:33;;;;;;;9.95;1.55;;;;;;;10.39;76.36;97546.91;4977619;28;20055;-69
2023/01/16 06:06:01;;;;;;;9.13;1.27;;;;;;;10.43;76.11;97550.44;4982396;28;20513;-69
2023/01/16 06:08:29;;;;;;;9.25;1.52;;;;;;;10.38;74.62;97547.28;4979143;28;20445;-68
2023/01/16 06:10:56;;;;;;;11.13;1.40;;;;;;;10.80;75.36;97534.41;4979208;28;20398;-67
2023/01/16 06:13:24;;;;;;;7.97;1.27;;;;;;;10.64;74.20;97547.75;4997090;28;20059;-69
2023/01/16 06:15:51;;;;;;;9.32;1.65;;;;;;;10.64;75.32;97547.75;4995262;28;20553;-68
2023/01/16 06:18:18;;;;;;;9.07;1.35;;;;;;;10.57;74.84;97536.72;4997509;28;20073;-68
2023/01/16 06:20:46;;;;;;;10.60;1.92;;;;;;;10.58;73.37;97529.28;5012271;28;20505;-68
2023/01/16 06:23:13;;;;;;;10.32;1.73;;;;;;;10.69;73.44;97532.81;4997452;28;20649;-69
2023/01/16 06:25:42;;;;;;;13.85;2.10;;;;;;;10.47;74.18;97518.25;5011459;28;20413;-68
2023/01/16 06:28:09;;;;;;;12.30;2.10;;;;;;;10.66;75.12;97509.63;4995782;28;20058;-69
2023/01/16 06:30:36;;;;;;;8.25;1.98;;;;;;;10.70;74.09;97517.88;4987444;28;20054;-76
2023/01/16 06:33:04;;;;;;;8.60;1.40;;;;;;;10.78;75.19;97500.97;4996733;28;20053;-76
2023/01/16 06:35:31;;;;;;;7.13;1.45;;;;;;;10.70;75.46;97493.91;5001165;28;20394;-77
2023/01/16 06:37:58;;;;;;;9.55;1.40;;;;;;;10.76;75.14;97497.03;4991545;28;20057;-76
2023/01/16 06:40:26;;;;;;;13.90;1.80;;;;;;;11.00;74.93;97477.75;4998175;28;20061;-76
2023/01/16 06:42:53;;;;;;;8.02;1.60;;;;;;;10.63;73.12;97469.13;4980634;28;20047;-77
2023/01/16 06:45:21;;;;;;;10.68;1.67;;;;;;;10.68;76.35;97462.44;4982038;28;20438;-77
2023/01/16 06:47:53;;;;;;;6.50;1.42;;;;;;;10.85;76.19;97464.41;4981261;28;20363;-75
2023/01/16 06:50:20;;;;;;;22.77;10.15;;;;;;;10.61;74.16;97460.47;4981607;28;20225;-75
2023/01/16 06:52:50;;;;;;;11.77;3.00;;;;;;;10.73;74.28;97451.81;4967454;28;20047;-78
2023/01/16 06:55:18;;;;;;;11.07;3.22;;;;;;;10.85;73.58;97450.63;4979130;28;20050;-76
2023/01/16 06:57:45;;;;;;;15.43;3.78;;;;;;;10.93;73.81;97443.94;4959145;28;20051;-77
2023/01/16 07:00:13;;;;;;;11.52;2.70;;;;;;;11.18;75.17;97439.97;4962091;28;20414;-76
2023/01/16 07:02:41;;;;;;;10.98;1.65;;;;;;;11.07;74.20;97430.16;4981974;28;20061;-76
2023/01/16 07:05:09;;;;;;;8.18;1.50;;;;;;;11.03;72.42;97432.13;5012619;28;20506;-73
2023/01/16 07:07:37;;;;;;;10.55;1.58;;;;;;;11.16;72.89;97428.56;4974054;28;20062;-78
2023/01/16 07:10:04;;;;;;;7.82;1.35;;;;;;;11.22;74.43;97429.75;4978316;28;20058;-77
2023/01/16 07:12:32;;;;;;;9.25;1.30;;;;;;;11.00;73.41;97408.16;4995191;28;20569;-76
2023/01/16 07:23:32;;;;;;;8.32;2.33;;;;;;;10.76;74.00;97370.41;4893832;28;20053;-74
2023/01/16 07:26:02;;;;;;;7.07;2.08;;;;;;;10.99;75.57;97374.31;5009208;28;20059;-73
2023/01/16 07:28:29;;;;;;;6.78;1.60;;;;;;;11.20;73.92;97357.72;4973895;28;20074;-77
2023/01/16 07:30:57;;;;;;;9.70;1.38;;;;;;;11.34;72.61;97354.91;4987981;28;20054;-74
2023/01/16 07:33:24;;;;;;;10.82;1.65;;;;;;;10.72;73.53;97345.63;4975539;28;20042;-74
2023/01/16 07:35:52;;;;;;;9.65;1.90;;;;;;;10.96;73.41;97333.81;4973001;28;20050;-72
2023/01/16 07:38:19;;;;;;;9.45;1.98;;;;;;;11.09;73.12;97321.16;4977533;28;20050;-72
2023/01/16 07:40:47;;;;;;;12.15;2.58;;;;;;;11.07;73.30;97308.97;4976579;28;20055;-74
2023/01/16 07:43:14;;;;;;;11.57;4.45;;;;;;;11.22;73.29;97297.50;4978169;28;20049;-75
2023/01/16 07:45:43;;;;;;;10.13;1.60;;;;;;;10.97;73.24;97305.06;4980236;28;20642;-73
2023/01/16 07:48:11;;;;;;;6.30;1.50;;;;;;;10.71;73.98;97299.25;4976811;28;20430;-71
2023/01/16 07:50:38;;;;;;;11.52;2.08;;;;;;;10.91;73.24;97289.38;4993934;28;20062;-72
2023/01/16 07:53:06;;;;;;;9.45;1.73;;;;;;;10.54;74.32;97287.09;4991316;28;20169;-71
2023/01/16 07:55:33;;;;;;;8.27;1.80;;;;;;;10.92;72.79;97272.44;4959321;28;20065;-71
2023/01/16 07:58:00;;;;;;;7.90;1.50;;;;;;;11.11;72.79;97273.94;4975345;28;20050;-70
2023/01/16 08:00:27;;;;;;;7.70;1.10;;;;;;;10.89;71.96;97270.50;4992108;28;20053;-67
2023/01/16 08:02:55;;;;;;;12.13;1.50;;;;;;;10.81;72.51;97260.66;4978006;28;20051;-67
2023/01/16 08:05:22;;;;;;;5.07;1.10;;;;;;;11.00;72.49;97254.69;4974401;28;20348;-75
2023/01/16 08:07:50;;;;;;;4.78;1.27;;;;;;;10.84;71.75;97243.38;4957152;28;20466;-71
2023/01/16 08:10:17;;;;;;;4.80;1.05;;;;;;;10.50;72.53;97225.78;4951421;28;20085;-71
2023/01/16 08:12:44;;;;;;;4.68;1.08;;;;;;;10.68;73.89;97236.75;4978847;28;20058;-71
2023/01/16 08:15:12;;;;;;;6.10;1.20;;;;;;;10.69;73.98;97235.53;4968145;28;20051;-72
2023/01/16 08:17:40;;;;;;;5.15;1.10;;;;;;;10.95;72.54;97213.03;4990185;28;20055;-71
2023/01/16 08:20:09;;;;;;;6.78;1.35;;;;;;;10.88;73.09;97219.34;4987938;28;20058;-71
2023/01/16 08:22:47;;;;;;;4.70;1.05;;;;;;;10.77;71.07;97204.06;4993883;28;20043;-70
2023/01/16 08:25:15;;;;;;;8.18;1.33;;;;;;;11.06;71.17;97197.25;4971995;28;20054;-70
2023/01/16 08:27:43;;;;;;;5.00;1.20;;;;;;;10.81;70.61;97205.63;4989683;28;20057;-71
2023/01/16 08:30:11;;;;;;;5.68;0.70;;;;;;;10.52;71.33;97195.13;4974515;28;20066;-70
2023/01/16 08:32:38;;;;;;;2.95;0.80;;;;;;;10.25;69.62;97202.28;4961085;28;20046;-70
2023/01/16 08:35:06;;;;;;;3.78;0.82;;;;;;;10.03;70.60;97201.47;4960996;28;20050;-70
2023/01/16 08:37:34;;;;;;;2.60;0.60;;;;;;;10.09;71.12;97202.69;4974674;28;20043;-71
2023/01/16 08:40:04;;;;;;;2.05;0.55;;;;;;;9.68;69.04;97196.00;4972769;28;20074;-68
2023/01/16 08:53:36;;;;;;;8.55;1.98;;;;;;;10.75;68.35;97212.72;4984542;28;20050;-71
2023/01/16 08:56:03;;;;;;;1.13;0.55;;;;;;;10.39;69.78;97214.00;4977080;28;20415;-72
2023/01/16 08:58:31;;;;;;;2.92;0.50;;;;;;;10.35;67.60;97217.97;4976259;28;20553;-72
2023/01/16 09:00:58;;;;;;;2.67;0.55;;;;;;;10.45;69.56;97215.19;4956611;28;20153;-70
2023/01/16 09:03:28;;;;;;;0.95;0.30;;;;;;;10.47;68.42;97217.53;4989336;28;20046;-71
2023/01/16 09:05:56;;;;;;;1.63;0.52;;;;;;;10.42;68.73;97229.75;4974526;28;20053;-71
2023/01/16 09:08:23;;;;;;;1.88;0.35;;;;;;;10.49;67.17;97228.94;4957845;28;20062;-72
2023/01/16 09:13:48;;;;;;;2.95;0.68;;;;;;;10.09;70.35;97241.97;4986682;28;20051;-73
2023/01/16 09:16:18;;;;;;;;;;;;;;;10.49;68.19;97246.25;4962474;28;20051;-73
2023/01/16 09:18:46;;;;;;;1.13;0.40;;;;;;;10.41;68.88;97263.91;4977050;28;20302;-72
2023/01/16 09:21:14;;;;;;;1.55;0.68;;;;;;;9.87;69.03;97272.56;4972028;28;20071;-74
2023/01/16 09:23:41;;;;;;;1.33;0.40;;;;;;;9.72;68.58;97273.75;4964511;28;20039;-72
2023/01/16 09:26:09;;;;;;;1.33;0.43;;;;;;;9.04;67.78;97286.53;4975010;28;20216;-74
2023/01/16 09:28:36;;;;;;;1.42;0.40;;;;;;;8.24;73.60;97295.09;4975696;28;20039;-73
2023/01/16 09:31:04;;;;;;;0.80;0.38;;;;;;;8.22;77.13;97305.63;4981272;28;20743;-72
2023/01/16 09:33:32;;;;;;;2.47;0.57;;;;;;;8.27;78.79;97323.69;4974329;28;20054;-74
2023/01/16 09:35:59;;;;;;;1.38;0.52;;;;;;;7.87;76.78;97330.00;4975898;28;20050;-73
2023/01/16 09:38:27;;;;;;;1.40;0.52;;;;;;;7.42;77.42;97344.81;4967725;28;20043;-71
2023/01/16 09:40:56;;;;;;;1.45;0.70;;;;;;;7.56;78.99;97355.94;4973072;28;20054;-71
2023/01/16 09:43:39;;;;;;;7.32;0.95;;;;;;;6.74;81.46;97369.78;4986772;28;20054;-71
2023/01/16 09:46:07;;;;;;;5.45;0.90;;;;;;;7.07;82.49;97373.72;4995253;28;20525;-73
2023/01/16 09:48:54;;;;;;;2.28;0.70;;;;;;;7.60;79.80;97380.63;4952997;28;20065;-73
2023/01/16 09:58:34;;;;;;;2.92;0.80;;;;;;;6.55;82.10;97402.69;4988960;28;20054;-71
2023/01/16 10:00:14;;;;;;;;;;;;;;;6.62;86.69;97410.22;4974993;28;20073;-71
2023/01/16 10:02:41;;;;;;;3.15;0.70;;;;;;;6.65;85.18;97426.66;4959636;28;19937;-70
2023/01/16 10:05:11;;;;;;;1.80;0.60;;;;;;;6.22;85.58;97443.53;4959105;28;20055;-71
2023/01/16 10:07:48;;;;;;;3.33;1.55;;;;;;;7.06;85.84;97446.78;4969772;28;20054;-71
2023/01/16 10:10:34;;;;;;;3.47;1.10;;;;;;;6.72;84.14;97464.28;4974597;28;20119;-71
2023/01/16 10:13:07;;;;;;;3.90;1.52;;;;;;;7.65;81.76;97478.88;4975204;28;20054;-71
2023/01/16 10:15:54;;;;;;;1.92;1.02;;;;;;;7.64;81.40;97485.50;5009701;28;20504;-71
2023/01/16 10:18:31;;;;;;;3.08;0.98;;;;;;;7.48;83.36;97493.91;4973131;28;20055;-71
2023/01/16 10:21:17;;;;;;;3.30;1.30;;;;;;;7.64;85.08;97499.19;4985892;28;20669;-74
2023/01/16 10:23:59;;;;;;;5.70;1.33;;;;;;;8.11;83.47;97502.09;4971451;28;20065;-72
2023/01/16 10:26:30;;;;;;;4.55;1.13;;;;;;;7.95;81.61;97531.69;4981857;28;20062;-73
2023/01/16 10:29:33;;;;;;;2.60;1.10;;;;;;;7.51;86.83;97525.25;4955698;28;20055;-72
2023/01/16 10:32:12;;;;;;;3.38;1.30;;;;;;;7.30;90.03;97549.59;4953749;28;20063;-71
2023/01/16 10:34:43;;;;;;;4.47;1.80;;;;;;;6.99;87.23;97547.16;4954628;28;20522;-70
2023/01/16 10:37:11;;;;;;;3.67;1.10;;;;;;;6.57;88.76;97550.75;4986044;28;20047;-71
2023/01/16 10:39:39;;;;;;;2.40;1.02;;;;;;;6.23;87.21;97602.81;4959484;28;20051;-73
2023/01/16 10:50:37;;;;;;;2.83;0.93;;;;;;;7.34;83.34;97616.16;4954823;28;20062;-69
2023/01/16 10:53:06;;;;;;;1.40;0.70;;;;;;;7.07;80.73;97648.16;4965540;28;20047;-70
2023/01/16 10:55:38;;;;;;;1.52;0.50;;;;;;;6.45;82.23;97654.03;4974359;28;20573;-72
2023/01/16 10:58:16;;;;;;;2.95;0.80;;;;;;;6.73;83.44;97646.34;4955709;28;20086;-72
2023/01/16 11:00:49;;;;;;;4.72;0.90;;;;;;;6.87;83.56;97656.78;4959238;28;20058;-73
2023/01/16 11:03:33;;;;;;;1.77;0.70;;;;;;;6.39;83.91;97675.41;4953100;28;20062;-69
2023/01/16 11:06:27;;;;;;;3.90;0.80;;;;;;;6.28;88.26;97689.97;4944110;28;20522;-71
2023/01/16 11:09:01;;;;;;;2.70;0.57;;;;;;;6.56;87.17;97712.44;4987170;28;20050;-69
2023/01/16 11:20:17;;;;;;;4.63;1.35;;;;;;;7.32;83.81;97733.44;4955423;28;20535;-70
2023/01/16 11:22:50;;;;;;;3.30;1.00;;;;;;;6.91;84.55;97737.75;4935269;28;20058;-71
2023/01/16 11:25:19;;;;;;;2.05;0.75;;;;;;;6.62;85.53;97750.09;4965286;28;20047;-70
2023/01/16 11:27:49;;;;;;;3.70;1.13;;;;;;;6.48;88.08;97749.78;4954797;28;20051;-71
2023/01/16 11:30:27;;;;;;;6.45;1.55;;;;;;;6.83;88.86;97752.47;4953047;28;20491;-72
2023/01/16 11:32:56;;;;;;;2.40;1.02;;;;;;;7.36;85.77;97754.25;4946159;28;20060;-70
2023/01/16 11:35:32;;;;;;;5.25;1.20;;;;;;;6.63;84.32;97789.16;4970964;28;20146;-72
2023/01/16 11:38:02;;;;;;;3.30;1.30;;;;;;;6.67;87.93;97779.88;4953145;28;20146;-69
2023/01/16 11:40:36;;;;;;;2.88;1.02;;;;;;;7.14;87.43;97784.31;4970109;28;20054;-71
2023/01/16 11:46:11;;;;;;;15.05;4.47;;;;;;;7.02;85.85;97785.28;4945922;28;20058;-71
2023/01/16 11:48:48;;;;;;;12.27;4.10;;;;;;;6.38;87.22;97817.91;4969956;28;20070;-70
2023/01/16 11:51:18;;;;;;;3.55;1.55;;;;;;;6.57;85.88;97818.72;4957179;28;20054;-72
2023/01/16 11:53:47;;;;;;;4.53;1.70;;;;;;;6.92;87.31;97820.63;4955796;28;20074;-71
2023/01/16 11:56:27;;;;;;;3.97;1.30;;;;;;;6.87;84.91;97837.34;4969732;28;20042;-71
2023/01/16 11:59:20;;;;;;;3.92;1.58;;;;;;;7.50;87.24;97846.81;4969396;28;20499;-71
2023/01/16 12:02:16;;;;;;;4.30;1.75;;;;;;;7.08;84.26;97870.63;4982907;28;20051;-72
2023/01/16 12:07:51;;;;;;;5.95;2.38;;;;;;;7.22;83.43;97871.69;4965352;28;20492;-73
2023/01/16 12:10:40;;;;;;;6.97;2.53;;;;;;;6.76;85.65;97881.66;4949442;28;20093;-73
2023/01/16 12:16:07;;;;;;;6.03;1.33;;;;;;;7.17;85.17;97898.56;4948802;28;20601;-72
2023/01/16 12:18:46;;;;;;;5.25;2.05;;;;;;;6.95;85.96;97910.19;4980118;28;20066;-70
2023/01/16 12:21:23;;;;;;;4.57;1.40;;;;;;;7.13;86.69;97900.44;4985010;28;20047;-70
2023/01/16 12:24:20;;;;;;;4.82;1.55;;;;;;;6.81;87.22;97924.38;4987516;28;20070;-72
2023/01/16 12:27:25;;;;;;;4.30;1.30;;;;;;;7.48;84.98;97921.13;4955286;28;20058;-72
2023/01/16 12:30:01;;;;;;;5.78;1.50;;;;;;;6.92;86.47;97933.63;4946874;29;20047;-70
2023/01/16 12:32:38;;;;;;;7.13;1.40;;;;;;;6.83;87.68;97952.16;4954501;28;20050;-71
2023/01/16 12:35:24;;;;;;;9.23;1.70;;;;;;;7.19;87.57;97942.78;5002324;28;20059;-72
2023/01/16 12:38:24;;;;;;;5.70;1.50;;;;;;;6.98;86.32;97969.69;4954456;28;20510;-71
2023/01/16 12:43:17;;;;;;;;;;;;;;;6.78;90.03;97974.31;4949283;28;20066;-72
2023/01/16 12:44:07;;;;;;;7.03;1.80;;;;;;;7.09;89.16;97982.47;4968014;28;19961;-71
2023/01/16 12:46:52;;;;;;;6.53;1.63;;;;;;;6.74;86.62;97998.06;4944631;28;20063;-71
2023/01/16 12:49:36;;;;;;;10.07;2.25;;;;;;;6.62;87.25;98003.63;4970214;28;20059;-71
2023/01/16 12:52:20;;;;;;;7.82;1.70;;;;;;;6.50;85.68;98006.44;4972825;28;20055;-73
2023/01/16 12:55:24;;;;;;;9.77;1.75;;;;;;;7.01;84.85;98002.59;4945918;28;20510;-72
2023/01/16 12:58:15;;;;;;;7.38;1.40;;;;;;;7.23;82.82;98026.59;4969879;28;20071;-72
2023/01/16 13:00:46;;;;;;;5.75;1.38;;;;;;;6.53;83.46;98031.16;4953091;28;20050;-72